Time;durP1;ratioP1;P1;durP2;ratioP2;P2;SDS_P1;SDS_P2;PMS_P1;PMS_P2;Temp;Humidity;BMP_temperature;BMP_pressure;BME280_temperature;BME280_humidity;BME280_pressure;Samples;Min_cycle;Max_cycle;Signal;HPM_P1;HPM_P2
2023/01/08 00:01:48;;;;;;;7.47;3.38;;;9.90;99.90;;;;;;5017726;28;20530;-77
2023/01/08 00:04:17;;;;;;;7.95;3.38;;;9.90;99.90;;;;;;5031630;28;20473;-77
2023/01/08 00:06:43;;;;;;;8.32;3.90;;;9.90;99.90;;;;;;5026478;28;20048;-77
2023/01/08 00:09:09;;;;;;;6.43;3.30;;;9.80;99.90;;;;;;5028132;28;20057;-77
2023/01/08 00:11:35;;;;;;;7.75;3.75;;;9.80;99.90;;;;;;5032732;28;20056;-80
2023/01/08 00:14:01;;;;;;;7.65;3.60;;;9.80;99.90;;;;;;5028265;28;20033;-77
2023/01/08 00:16:27;;;;;;;8.90;3.97;;;9.80;99.90;;;;;;5022154;28;20041;-77
2023/01/08 00:18:52;;;;;;;6.00;3.92;;;9.80;99.90;;;;;;5038581;28;20291;-77
2023/01/08 00:21:19;;;;;;;7.32;3.30;;;9.80;99.90;;;;;;5031359;28;20565;-78
2023/01/08 00:23:45;;;;;;;7.60;3.45;;;9.70;99.90;;;;;;5024352;28;20064;-77
2023/01/08 00:26:12;;;;;;;7.32;3.97;;;9.70;99.90;;;;;;5017326;28;20221;-78
2023/01/08 00:28:38;;;;;;;6.72;3.97;;;9.60;99.90;;;;;;5028172;28;20040;-78
2023/01/08 00:31:09;;;;;;;9.23;4.38;;;9.70;99.90;;;;;;5030592;28;20037;-77
2023/01/08 00:33:36;;;;;;;6.57;3.63;;;9.60;99.90;;;;;;5027828;28;20041;-77
2023/01/08 00:36:14;;;;;;;7.15;3.70;;;9.60;99.90;;;;;;5023117;28;20596;-76
2023/01/08 00:38:40;;;;;;;7.80;4.03;;;9.50;99.90;;;;;;5024067;28;20150;-76
2023/01/08 00:41:06;;;;;;;8.80;3.65;;;9.50;99.90;;;;;;5016861;28;20551;-76
2023/01/08 00:43:32;;;;;;;7.88;2.78;;;9.50;99.90;;;;;;5028948;28;20131;-76
2023/01/08 00:45:57;;;;;;;6.55;3.22;;;9.40;99.90;;;;;;5026237;28;20063;-75
2023/01/08 00:48:26;;;;;;;7.90;3.28;;;9.40;99.90;;;;;;5026598;28;20485;-76
2023/01/08 00:50:53;;;;;;;5.95;2.67;;;9.40;99.90;;;;;;5029622;28;20045;-76
2023/01/08 00:53:20;;;;;;;5.72;2.88;;;9.30;99.90;;;;;;5032292;28;20167;-77
2023/01/08 00:55:45;;;;;;;8.57;2.60;;;9.30;99.90;;;;;;5029958;28;20506;-77
2023/01/08 00:58:11;;;;;;;11.82;2.95;;;9.20;99.90;;;;;;5029267;28;20041;-77
2023/01/08 01:00:37;;;;;;;5.28;2.47;;;9.20;99.90;;;;;;5026696;28;20056;-77
2023/01/08 01:03:03;;;;;;;6.57;2.20;;;9.20;99.90;;;;;;5021827;28;20046;-76
2023/01/08 01:05:29;;;;;;;6.45;2.15;;;9.10;99.90;;;;;;5027625;28;20037;-77
2023/01/08 01:07:55;;;;;;;4.93;2.00;;;9.10;99.90;;;;;;5028380;28;20061;-77
2023/01/08 01:10:21;;;;;;;7.43;1.92;;;9.10;99.90;;;;;;5022119;28;20042;-77
2023/01/08 01:12:47;;;;;;;7.80;2.13;;;9.00;99.90;;;;;;5027424;28;20045;-77
2023/01/08 01:15:16;;;;;;;9.60;1.88;;;9.00;99.90;;;;;;5026701;28;20086;-77
2023/01/08 01:17:43;;;;;;;7.43;1.92;;;8.90;99.90;;;;;;5024523;28;20045;-76
2023/01/08 01:20:12;;;;;;;7.88;1.70;;;9.00;99.90;;;;;;5026033;28;20068;-76
2023/01/08 01:22:38;;;;;;;11.35;2.00;;;8.90;99.90;;;;;;5024955;28;20041;-77
2023/01/08 01:25:04;;;;;;;10.45;2.30;;;8.90;99.90;;;;;;5021016;28;20056;-74
2023/01/08 01:27:30;;;;;;;12.02;1.77;;;8.90;99.90;;;;;;5023840;28;20049;-76
2023/01/08 01:29:55;;;;;;;7.47;2.42;;;8.90;99.90;;;;;;5022813;28;20413;-76
2023/01/08 01:32:21;;;;;;;10.57;1.70;;;8.90;99.90;;;;;;5026709;28;20057;-75
2023/01/08 01:34:47;;;;;;;6.13;1.92;;;8.90;99.90;;;;;;5024857;28;20148;-77
2023/01/08 01:37:13;;;;;;;8.25;1.95;;;8.90;99.90;;;;;;5020952;28;20549;-75
2023/01/08 01:39:40;;;;;;;9.27;2.13;;;8.80;99.90;;;;;;5023386;28;20036;-77
2023/01/08 01:42:05;;;;;;;8.20;1.98;;;8.80;99.90;;;;;;5026203;28;20163;-76
2023/01/08 01:44:41;;;;;;;8.35;2.30;;;8.80;99.90;;;;;;5025650;28;20057;-77
2023/01/08 01:47:21;;;;;;;12.05;2.80;;;8.80;99.90;;;;;;5026232;28;20178;-76
2023/01/08 01:49:58;;;;;;;6.97;2.00;;;8.70;99.90;;;;;;5024739;28;20057;-76
2023/01/08 01:52:26;;;;;;;10.63;2.70;;;8.70;99.90;;;;;;5025141;28;20073;-76
2023/01/08 01:54:53;;;;;;;9.98;2.00;;;8.70;99.90;;;;;;5029504;28;20112;-76
2023/01/08 01:57:18;;;;;;;7.40;2.25;;;8.60;99.90;;;;;;5025652;28;20045;-76
2023/01/08 01:59:46;;;;;;;10.30;2.80;;;8.60;99.90;;;;;;5027873;28;20068;-75
2023/01/08 02:02:12;;;;;;;17.77;3.05;;;8.60;99.90;;;;;;5025852;28;20409;-75
2023/01/08 02:04:37;;;;;;;15.98;2.97;;;8.60;99.90;;;;;;5034369;28;20037;-76
2023/01/08 02:07:14;;;;;;;8.43;2.20;;;8.50;99.90;;;;;;5025740;28;20076;-75
2023/01/08 02:10:09;;;;;;;11.15;2.85;;;8.50;99.90;;;;;;5025091;28;20042;-76
2023/01/08 02:12:40;;;;;;;20.30;2.80;;;8.50;99.90;;;;;;5023747;28;20070;-76
2023/01/08 02:15:10;;;;;;;12.93;2.45;;;8.50;99.90;;;;;;5028802;28;20045;-74
2023/01/08 02:18:01;;;;;;;13.27;2.55;;;8.50;99.90;;;;;;5034596;28;20120;-76
2023/01/08 02:20:36;;;;;;;14.77;2.60;;;8.50;99.90;;;;;;5033178;28;20049;-76
2023/01/08 02:23:19;;;;;;;12.70;2.90;;;8.40;99.90;;;;;;5033057;28;20048;-75
2023/01/08 02:26:12;;;;;;;9.68;2.45;;;8.40;99.90;;;;;;5033244;28;20789;-76
2023/01/08 02:28:50;;;;;;;11.67;2.27;;;8.30;99.90;;;;;;5033287;28;20394;-76
2023/01/08 02:31:17;;;;;;;8.48;2.03;;;8.30;99.90;;;;;;5030105;28;20811;-76
2023/01/08 02:33:43;;;;;;;11.48;2.58;;;8.30;99.90;;;;;;5032681;28;20542;-76
2023/01/08 02:36:58;;;;;;;9.75;2.15;;;8.20;99.90;;;;;;5033402;28;20046;-76
2023/01/08 02:39:35;;;;;;;10.55;2.88;;;8.20;99.90;;;;;;5021689;28;20048;-76
2023/01/08 02:42:04;;;;;;;14.32;2.60;;;8.20;99.90;;;;;;5024847;28;20102;-76
2023/01/08 02:45:03;;;;;;;18.23;2.50;;;8.20;99.90;;;;;;5036264;28;20115;-76
2023/01/08 02:47:37;;;;;;;15.82;2.97;;;8.10;99.90;;;;;;5030733;28;20382;-76
2023/01/08 02:50:11;;;;;;;19.35;2.83;;;8.10;99.90;;;;;;5032257;28;20133;-76
2023/01/08 02:52:47;;;;;;;23.90;3.25;;;8.10;99.90;;;;;;5034100;28;20049;-76
2023/01/08 02:55:15;;;;;;;20.02;3.75;;;8.20;99.90;;;;;;5035709;28;20048;-76
2023/01/08 02:57:41;;;;;;;15.00;2.92;;;8.20;99.90;;;;;;5030895;28;20053;-76
2023/01/08 03:00:07;;;;;;;14.27;2.72;;;8.20;99.90;;;;;;5027984;28;20500;-76
2023/01/08 03:02:35;;;;;;;20.73;4.35;;;8.20;99.90;;;;;;5033632;28;20045;-76
2023/01/08 03:05:12;;;;;;;17.35;3.03;;;8.20;99.90;;;;;;5035719;28;20484;-75
2023/01/08 03:07:38;;;;;;;20.40;3.90;;;8.10;99.90;;;;;;5032608;28;20033;-76
2023/01/08 03:10:04;;;;;;;16.40;3.22;;;8.10;99.90;;;;;;5028253;28;20039;-76
2023/01/08 03:12:40;;;;;;;19.17;3.25;;;8.10;99.90;;;;;;5030267;28;20045;-76
2023/01/08 03:15:08;;;;;;;15.35;3.28;;;8.00;99.90;;;;;;5030217;28;20049;-75
2023/01/08 03:17:42;;;;;;;14.18;2.50;;;8.00;99.90;;;;;;5034212;28;20077;-75
2023/01/08 03:20:18;;;;;;;21.08;2.88;;;8.00;99.90;;;;;;5035654;28;20053;-76
2023/01/08 03:22:47;;;;;;;10.98;2.28;;;7.90;99.90;;;;;;5034957;28;20037;-75
2023/01/08 03:25:15;;;;;;;14.63;2.35;;;7.90;99.90;;;;;;5033041;28;20040;-75
2023/01/08 03:27:47;;;;;;;11.32;2.90;;;7.90;99.90;;;;;;5027301;28;20049;-75
2023/01/08 03:30:14;;;;;;;15.05;2.70;;;7.90;99.90;;;;;;5029135;28;20160;-76
2023/01/08 03:32:42;;;;;;;12.65;2.25;;;7.90;99.90;;;;;;5030579;28;20057;-76
2023/01/08 03:35:10;;;;;;;11.05;2.22;;;8.00;99.90;;;;;;5027965;28;20041;-75
2023/01/08 03:37:39;;;;;;;7.93;1.98;;;7.90;99.90;;;;;;5031722;28;20054;-75
2023/01/08 03:40:12;;;;;;;8.75;2.30;;;8.00;99.90;;;;;;5034385;28;20040;-75
2023/01/08 03:42:38;;;;;;;;;;;8.00;99.90;;;;;;5033070;28;20048;-76
2023/01/08 03:45:05;;;;;;;15.18;2.25;;;8.00;99.90;;;;;;5031344;28;19921;-76
2023/01/08 03:47:33;;;;;;;13.40;2.67;;;8.00;99.90;;;;;;5033447;28;20045;-73
2023/01/08 03:50:01;;;;;;;13.90;2.70;;;8.00;99.90;;;;;;5032540;28;20044;-75
2023/01/08 03:52:30;;;;;;;13.48;2.72;;;7.90;99.90;;;;;;5026850;28;20056;-76
2023/01/08 03:54:56;;;;;;;9.90;1.85;;;7.90;99.90;;;;;;5026641;28;20044;-75
2023/01/08 03:57:22;;;;;;;18.60;3.65;;;7.90;99.90;;;;;;5030929;28;20045;-76
2023/01/08 03:59:48;;;;;;;9.68;2.33;;;7.90;99.90;;;;;;5031826;28;20072;-75
2023/01/08 04:02:14;;;;;;;11.75;2.67;;;7.90;99.90;;;;;;5030940;28;20091;-76
2023/01/08 04:04:39;;;;;;;11.85;2.42;;;7.90;99.90;;;;;;5030552;28;20049;-76
2023/01/08 04:07:06;;;;;;;14.18;2.60;;;7.90;99.90;;;;;;5031692;28;20207;-75
2023/01/08 04:09:32;;;;;;;12.25;2.78;;;7.90;99.90;;;;;;5033321;28;20048;-76
2023/01/08 04:11:57;;;;;;;11.07;2.75;;;7.90;99.90;;;;;;5033472;28;20059;-75
2023/01/08 04:14:23;;;;;;;8.25;2.50;;;7.90;99.90;;;;;;5029163;28;20069;-75
2023/01/08 04:16:49;;;;;;;7.35;2.20;;;7.90;99.90;;;;;;5031860;28;20041;-75
2023/01/08 04:19:14;;;;;;;11.13;2.67;;;7.90;99.90;;;;;;5029715;28;20095;-75
2023/01/08 04:21:40;;;;;;;11.45;2.83;;;7.90;99.90;;;;;;5032142;28;20057;-75
2023/01/08 04:24:06;;;;;;;9.18;3.67;;;7.80;99.90;;;;;;5027342;28;20046;-76
2023/01/08 04:26:32;;;;;;;8.30;2.28;;;7.90;99.90;;;;;;5029249;28;20077;-76
2023/01/08 04:29:00;;;;;;;11.48;2.50;;;7.90;99.90;;;;;;5035874;28;20516;-75
2023/01/08 04:31:26;;;;;;;10.55;3.10;;;7.90;99.90;;;;;;5020580;28;20063;-75
2023/01/08 04:33:51;;;;;;;12.73;2.75;;;7.90;99.90;;;;;;5013585;28;20038;-75
2023/01/08 04:36:17;;;;;;;7.93;2.50;;;7.90;99.90;;;;;;5019165;28;20049;-76
2023/01/08 04:38:43;;;;;;;13.35;3.10;;;8.00;99.90;;;;;;5020266;28;20045;-76
2023/01/08 04:41:09;;;;;;;14.30;3.22;;;8.00;99.90;;;;;;5025072;28;20175;-75
2023/01/08 04:43:34;;;;;;;7.55;2.33;;;7.90;99.90;;;;;;5029707;28;20038;-75
2023/01/08 04:48:35;;;;;;;13.45;3.03;;;8.00;99.90;;;;;;5000882;23;20062;-77
2023/01/08 04:51:02;;;;;;;8.68;3.03;;;8.00;99.90;;;;;;4975000;28;20165;-75
2023/01/08 04:53:30;;;;;;;6.28;2.45;;;8.00;99.90;;;;;;4976605;28;20491;-75
2023/01/08 04:55:55;;;;;;;7.55;2.58;;;7.90;99.90;;;;;;4978723;28;20046;-76
2023/01/08 04:58:21;;;;;;;11.25;2.67;;;8.00;99.90;;;;;;4975222;28;20174;-76
2023/01/08 05:00:47;;;;;;;11.40;2.70;;;8.00;99.90;;;;;;4979997;28;20145;-76
2023/01/08 05:03:16;;;;;;;4.07;1.98;;;8.00;99.90;;;;;;4979521;28;20125;-76
2023/01/08 05:05:41;;;;;;;11.32;3.70;;;8.00;99.90;;;;;;4977008;28;20402;-76
2023/01/08 05:08:07;;;;;;;10.45;2.30;;;8.00;99.90;;;;;;4974336;28;20031;-76
2023/01/08 05:10:32;;;;;;;7.20;2.42;;;8.00;99.90;;;;;;4978782;28;20041;-76
2023/01/08 05:12:59;;;;;;;12.82;2.38;;;8.00;99.90;;;;;;4979125;28;20520;-76
2023/01/08 05:15:25;;;;;;;8.38;2.42;;;7.90;99.90;;;;;;4977439;28;20046;-75
2023/01/08 05:18:02;;;;;;;11.23;1.90;;;8.00;99.90;;;;;;4977811;28;20051;-75
2023/01/08 05:20:28;;;;;;;10.93;2.47;;;8.00;99.90;;;;;;4981966;28;20061;-76
2023/01/08 05:22:53;;;;;;;8.68;2.05;;;8.00;99.90;;;;;;4978117;28;20069;-75
2023/01/08 05:25:20;;;;;;;5.53;1.73;;;7.90;99.90;;;;;;4978386;28;20578;-75
2023/01/08 05:27:46;;;;;;;13.52;2.45;;;7.90;99.90;;;;;;4979690;28;20055;-76
2023/01/08 05:30:13;;;;;;;5.25;1.80;;;7.80;99.90;;;;;;4977570;28;20061;-76
2023/01/08 05:32:38;;;;;;;10.23;2.28;;;7.90;99.90;;;;;;4981885;28;20538;-75
2023/01/08 05:35:04;;;;;;;5.68;1.90;;;7.90;99.90;;;;;;4975697;28;20078;-74
2023/01/08 05:37:32;;;;;;;10.98;2.00;;;7.90;99.90;;;;;;4977853;28;20046;-76
2023/01/08 05:39:58;;;;;;;6.88;1.60;;;7.90;99.90;;;;;;4979474;28;20184;-76
2023/01/08 05:42:23;;;;;;;9.30;2.38;;;7.90;99.90;;;;;;4979980;28;20173;-76
2023/01/08 05:44:49;;;;;;;13.75;3.58;;;7.90;99.90;;;;;;4980373;28;20216;-77
2023/01/08 05:47:14;;;;;;;6.22;2.55;;;8.00;99.90;;;;;;4972305;28;20059;-76
2023/01/08 05:49:40;;;;;;;5.22;1.90;;;7.90;99.90;;;;;;4968204;28;20043;-75
2023/01/08 05:52:06;;;;;;;7.68;1.98;;;7.80;99.90;;;;;;4968602;28;20081;-75
2023/01/08 05:54:32;;;;;;;6.45;1.50;;;7.80;99.90;;;;;;4964308;28;20046;-75
2023/01/08 05:56:57;;;;;;;6.93;1.73;;;7.70;99.90;;;;;;4965947;28;20037;-76
2023/01/08 05:59:23;;;;;;;7.25;1.55;;;7.70;99.90;;;;;;4967965;28;20053;-75
2023/01/08 06:01:48;;;;;;;6.25;1.60;;;7.70;99.90;;;;;;4967290;28;20051;-75
2023/01/08 06:04:14;;;;;;;7.95;1.92;;;7.70;99.90;;;;;;4966652;28;20393;-75
2023/01/08 06:06:40;;;;;;;7.53;1.77;;;7.60;99.90;;;;;;4969506;28;20486;-76
2023/01/08 06:09:05;;;;;;;5.03;1.42;;;7.60;99.90;;;;;;4965795;28;20585;-75
2023/01/08 06:11:31;;;;;;;7.82;1.80;;;7.60;99.90;;;;;;4968811;28;20125;-77
2023/01/08 06:13:57;;;;;;;9.48;1.80;;;7.60;99.90;;;;;;4965579;28;20042;-75
2023/01/08 06:16:22;;;;;;;7.85;2.15;;;7.50;99.90;;;;;;4965681;28;20049;-76
2023/01/08 06:18:48;;;;;;;8.75;1.92;;;7.50;99.90;;;;;;4965152;28;20043;-77
2023/01/08 06:21:13;;;;;;;8.98;2.33;;;7.50;99.90;;;;;;4966884;28;20051;-75
2023/01/08 06:23:40;;;;;;;7.18;1.70;;;7.40;99.90;;;;;;4967556;28;20305;-77
2023/01/08 06:26:06;;;;;;;9.10;1.63;;;7.50;99.90;;;;;;4964927;28;20035;-76
2023/01/08 06:28:32;;;;;;;12.10;2.42;;;7.40;99.90;;;;;;4974420;28;20046;-78
2023/01/08 06:31:01;;;;;;;8.98;1.80;;;7.40;99.90;;;;;;4968152;28;20049;-76
2023/01/08 06:33:27;;;;;;;6.28;1.80;;;7.40;99.90;;;;;;4968814;28;20549;-76
2023/01/08 06:35:53;;;;;;;18.10;2.20;;;7.40;99.90;;;;;;4966393;28;20059;-76
2023/01/08 06:38:18;;;;;;;8.35;2.25;;;7.40;99.90;;;;;;4964209;28;20062;-77
2023/01/08 06:40:45;;;;;;;14.48;3.22;;;7.30;99.90;;;;;;4963332;28;20058;-76
2023/01/08 06:43:11;;;;;;;11.65;2.00;;;7.30;99.90;;;;;;4964233;28;20053;-76
2023/01/08 06:45:37;;;;;;;11.90;2.72;;;7.30;99.90;;;;;;4965103;28;20042;-76
2023/01/08 06:48:04;;;;;;;9.38;2.10;;;7.20;99.90;;;;;;4964499;28;20055;-75
2023/01/08 06:50:31;;;;;;;8.95;2.08;;;7.30;99.90;;;;;;4963213;28;20077;-76
2023/01/08 06:52:57;;;;;;;8.10;2.88;;;7.20;99.90;;;;;;4964240;28;20047;-76
2023/01/08 06:55:24;;;;;;;10.18;2.67;;;7.20;99.90;;;;;;4957984;28;20043;-77
2023/01/08 06:57:57;;;;;;;12.48;2.95;;;7.20;99.90;;;;;;4968282;28;20042;-76
2023/01/08 07:00:25;;;;;;;14.20;2.92;;;7.10;99.90;;;;;;4968455;28;20130;-76
2023/01/08 07:02:51;;;;;;;9.45;2.22;;;7.10;99.90;;;;;;4965979;28;20042;-76
2023/01/08 07:05:17;;;;;;;13.48;3.47;;;7.20;99.90;;;;;;4966805;28;20089;-77
2023/01/08 07:07:46;;;;;;;8.20;2.15;;;7.20;99.90;;;;;;4963774;28;20051;-75
2023/01/08 07:10:11;;;;;;;13.88;2.92;;;7.20;99.90;;;;;;4963486;28;20446;-76
2023/01/08 07:12:37;;;;;;;14.90;2.70;;;7.20;99.90;;;;;;4965245;28;20046;-76
2023/01/08 07:15:03;;;;;;;13.02;2.25;;;7.10;99.90;;;;;;4967412;28;20124;-75
2023/01/08 07:17:31;;;;;;;8.75;2.00;;;7.10;99.90;;;;;;4966221;28;20038;-75
2023/01/08 07:19:57;;;;;;;10.15;1.98;;;7.20;99.90;;;;;;4966664;28;20413;-77
2023/01/08 07:22:24;;;;;;;12.30;2.40;;;7.10;99.90;;;;;;4962199;28;20055;-74
2023/01/08 07:24:50;;;;;;;10.30;2.40;;;7.10;99.90;;;;;;4966217;28;20042;-76
2023/01/08 07:27:16;;;;;;;10.48;3.05;;;7.10;99.90;;;;;;4966248;28;20046;-76
2023/01/08 07:29:42;;;;;;;9.55;2.13;;;7.20;99.90;;;;;;4967780;28;20469;-76
2023/01/08 07:32:08;;;;;;;11.80;2.70;;;7.10;99.90;;;;;;4966557;28;20081;-76
2023/01/08 07:34:34;;;;;;;8.13;2.60;;;7.10;99.90;;;;;;4966678;28;20058;-77
2023/01/08 07:37:00;;;;;;;12.43;2.25;;;7.10;99.90;;;;;;4965289;28;20035;-76
2023/01/08 07:39:25;;;;;;;10.63;2.28;;;7.10;99.90;;;;;;4967706;28;20145;-75
2023/01/08 07:41:51;;;;;;;9.07;2.30;;;7.10;99.90;;;;;;4965275;28;20620;-76
2023/01/08 07:44:17;;;;;;;9.98;3.33;;;7.10;99.90;;;;;;4962641;28;20046;-75
2023/01/08 07:46:45;;;;;;;11.18;2.80;;;7.10;99.90;;;;;;4959440;28;20059;-76
2023/01/08 07:49:11;;;;;;;13.07;3.80;;;7.10;99.90;;;;;;4962807;28;20053;-76
2023/01/08 07:51:37;;;;;;;10.10;3.63;;;7.00;99.90;;;;;;4964126;28;20085;-76
2023/01/08 07:54:03;;;;;;;9.77;2.90;;;7.00;99.90;;;;;;4960313;28;20062;-76
2023/01/08 07:56:28;;;;;;;11.82;3.30;;;7.00;99.90;;;;;;4965476;28;20409;-76
2023/01/08 07:58:54;;;;;;;10.60;3.50;;;7.00;99.90;;;;;;4965690;28;20073;-75
2023/01/08 08:01:20;;;;;;;12.80;3.67;;;6.90;99.90;;;;;;4968232;28;20047;-77
2023/01/08 08:03:45;;;;;;;10.50;4.10;;;6.90;99.90;;;;;;4965784;28;20078;-77
2023/01/08 08:06:11;;;;;;;16.35;5.45;;;7.00;99.90;;;;;;4967777;28;20539;-75
2023/01/08 08:08:37;;;;;;;14.65;5.13;;;7.00;99.90;;;;;;4965704;28;20579;-76
2023/01/08 08:11:02;;;;;;;11.98;4.13;;;6.90;99.90;;;;;;4961805;28;20051;-76
2023/01/08 08:13:28;;;;;;;14.10;3.28;;;7.00;99.90;;;;;;4967215;28;20047;-76
2023/01/08 08:15:54;;;;;;;5.53;2.33;;;7.00;99.90;;;;;;4965543;28;20050;-76
2023/01/08 08:18:19;;;;;;;11.32;2.90;;;7.10;99.90;;;;;;4961959;28;20097;-77
2023/01/08 08:20:46;;;;;;;12.93;3.00;;;7.00;99.90;;;;;;4967347;28;20038;-77
2023/01/08 08:23:13;;;;;;;11.40;3.47;;;7.10;99.90;;;;;;4963996;28;20049;-77
2023/01/08 08:25:40;;;;;;;16.65;3.83;;;7.00;99.90;;;;;;4964683;28;20038;-76
2023/01/08 08:28:08;;;;;;;11.20;2.92;;;7.10;99.90;;;;;;4958355;28;20043;-75
2023/01/08 08:30:34;;;;;;;14.02;4.40;;;7.00;99.90;;;;;;4963956;28;20039;-76
2023/01/08 08:33:02;;;;;;;9.75;2.78;;;7.10;99.90;;;;;;4961842;28;20391;-77
2023/01/08 08:35:29;;;;;;;9.95;2.58;;;7.00;99.90;;;;;;4965519;28;20089;-75
2023/01/08 08:37:55;;;;;;;10.80;2.50;;;7.10;99.90;;;;;;4963348;28;20129;-77
2023/01/08 08:40:21;;;;;;;16.70;3.58;;;7.10;99.90;;;;;;4959944;28;21413;-75
2023/01/08 08:42:47;;;;;;;11.80;2.40;;;7.10;99.90;;;;;;4956438;28;20110;-76
2023/01/08 08:45:15;;;;;;;13.82;2.85;;;7.10;99.90;;;;;;4963983;28;20062;-76
2023/01/08 08:47:41;;;;;;;8.18;2.60;;;7.10;99.90;;;;;;4970470;28;20039;-76
2023/01/08 08:50:07;;;;;;;12.27;2.83;;;7.20;99.90;;;;;;4958494;28;20530;-76
2023/01/08 08:52:33;;;;;;;8.00;2.05;;;7.10;99.90;;;;;;4958161;28;20051;-76
2023/01/08 08:54:59;;;;;;;13.93;2.17;;;7.20;99.90;;;;;;4952030;28;20521;-75
2023/01/08 08:57:26;;;;;;;12.57;2.70;;;7.20;99.90;;;;;;4961841;28;20054;-75
2023/01/08 08:59:52;;;;;;;13.45;2.75;;;7.20;99.90;;;;;;4961170;28;20070;-76
2023/01/08 09:02:18;;;;;;;11.40;3.35;;;7.30;99.90;;;;;;4960960;28;20505;-75
2023/01/08 09:04:46;;;;;;;11.15;2.97;;;7.30;99.90;;;;;;4965926;28;20489;-76
2023/01/08 09:07:15;;;;;;;14.23;2.67;;;7.30;99.90;;;;;;4965605;28;20049;-75
2023/01/08 09:09:41;;;;;;;11.63;2.92;;;7.30;99.90;;;;;;4966025;28;20486;-76
2023/01/08 09:12:06;;;;;;;17.65;2.80;;;7.30;99.90;;;;;;4963893;28;20089;-75
2023/01/08 09:14:32;;;;;;;21.42;6.40;;;7.30;99.90;;;;;;4962399;28;20046;-76
2023/01/08 09:16:58;;;;;;;12.27;3.42;;;7.30;99.90;;;;;;4947664;28;20039;-76
2023/01/08 09:19:23;;;;;;;13.32;3.42;;;7.40;99.90;;;;;;4966574;28;22001;-76
2023/01/08 09:21:49;;;;;;;14.38;3.03;;;7.40;99.90;;;;;;4964077;28;20281;-76
2023/01/08 09:24:15;;;;;;;10.52;2.22;;;7.40;99.90;;;;;;4965850;28;20090;-75
2023/01/08 09:26:41;;;;;;;10.88;2.65;;;7.50;99.90;;;;;;4963217;28;20569;-76
2023/01/08 09:29:07;;;;;;;11.32;2.70;;;7.40;99.90;;;;;;4964367;28;20047;-74
2023/01/08 09:31:33;;;;;;;12.05;3.22;;;7.50;99.90;;;;;;4959546;28;20566;-75
2023/01/08 09:33:59;;;;;;;10.60;2.60;;;7.50;99.90;;;;;;4964580;28;20349;-75
2023/01/08 09:36:28;;;;;;;18.00;2.60;;;7.40;99.90;;;;;;4964717;28;20062;-75
2023/01/08 09:38:53;;;;;;;13.43;2.38;;;7.50;99.90;;;;;;4964313;28;20039;-75
2023/01/08 09:41:33;;;;;;;12.93;3.25;;;7.60;99.90;;;;;;4958592;28;20038;-75
2023/01/08 09:44:01;;;;;;;12.98;2.53;;;7.60;99.90;;;;;;4963290;28;20166;-75
2023/01/08 09:46:28;;;;;;;13.93;3.05;;;7.60;99.90;;;;;;4965054;28;20054;-75
2023/01/08 09:48:58;;;;;;;9.05;2.33;;;7.60;99.90;;;;;;4965569;28;20124;-76
2023/01/08 09:51:32;;;;;;;9.15;2.50;;;7.60;99.90;;;;;;4961413;28;20035;-75
2023/01/08 09:53:58;;;;;;;11.23;2.22;;;7.70;99.90;;;;;;4960782;28;20288;-75
2023/01/08 09:56:25;;;;;;;17.25;4.10;;;7.70;99.90;;;;;;4962529;28;20046;-75
2023/01/08 09:58:53;;;;;;;9.90;2.30;;;7.80;99.90;;;;;;4961943;28;20476;-75
2023/01/08 10:01:24;;;;;;;17.33;2.60;;;7.70;99.90;;;;;;4960085;28;20474;-75
2023/01/08 10:03:59;;;;;;;15.05;3.15;;;7.80;99.90;;;;;;4962505;28;20057;-75
2023/01/08 10:06:25;;;;;;;11.43;2.42;;;7.90;99.90;;;;;;4965733;28;20465;-74
2023/01/08 10:08:51;;;;;;;14.43;3.08;;;7.90;99.90;;;;;;4967478;28;20560;-74
2023/01/08 10:11:17;;;;;;;12.98;2.95;;;7.90;99.90;;;;;;4959572;28;20409;-76
2023/01/08 10:13:51;;;;;;;12.82;3.63;;;7.90;99.90;;;;;;4967128;28;20039;-75
2023/01/08 10:16:31;;;;;;;12.77;3.45;;;7.90;99.90;;;;;;4962739;28;20066;-75
2023/01/08 10:18:58;;;;;;;14.77;2.88;;;7.90;99.90;;;;;;4963007;28;20526;-75
2023/01/08 10:21:29;;;;;;;10.23;2.58;;;7.90;99.90;;;;;;4963550;28;20046;-75
2023/01/08 10:23:55;;;;;;;13.75;2.65;;;7.90;99.90;;;;;;4960166;28;20035;-74
2023/01/08 10:26:36;;;;;;;13.07;2.22;;;7.90;99.90;;;;;;4962412;28;20053;-75
2023/01/08 10:29:13;;;;;;;7.60;1.90;;;7.90;99.90;;;;;;4966203;28;20042;-74
2023/01/08 10:31:49;;;;;;;8.70;2.53;;;7.90;99.90;;;;;;4966635;28;20572;-75
2023/01/08 10:34:40;;;;;;;15.18;2.42;;;8.00;99.90;;;;;;4964264;28;20042;-75
2023/01/08 10:37:31;;;;;;;14.70;2.70;;;8.00;99.90;;;;;;4965716;28;20049;-75
2023/01/08 10:40:16;;;;;;;8.88;2.55;;;8.00;99.90;;;;;;4966651;28;20051;-75
2023/01/08 10:42:45;;;;;;;11.65;2.58;;;8.00;99.90;;;;;;4959538;28;20047;-74
2023/01/08 10:45:20;;;;;;;13.43;2.90;;;8.00;99.90;;;;;;4960622;28;20042;-76
2023/01/08 10:47:50;;;;;;;13.88;2.75;;;8.10;99.90;;;;;;4963516;28;20555;-75
2023/01/08 10:50:26;;;;;;;11.65;3.47;;;8.00;99.90;;;;;;4961235;28;20050;-75
2023/01/08 10:52:54;;;;;;;11.43;3.40;;;8.10;99.90;;;;;;4961824;28;20046;-75
2023/01/08 10:55:27;;;;;;;15.32;2.60;;;8.10;99.90;;;;;;4960007;28;20045;-76
2023/01/08 10:58:22;;;;;;;15.77;3.28;;;8.20;99.90;;;;;;4960644;28;20073;-76
2023/01/08 11:00:48;;;;;;;10.00;2.33;;;8.10;99.90;;;;;;4962508;28;20457;-74
2023/01/08 11:03:28;;;;;;;11.57;2.75;;;8.20;99.90;;;;;;4961265;28;20133;-75
2023/01/08 11:05:54;;;;;;;11.68;2.80;;;8.20;99.90;;;;;;4965625;28;20042;-74
2023/01/08 11:08:21;;;;;;;15.00;3.13;;;8.20;99.90;;;;;;4965528;28;20091;-73
2023/01/08 11:10:56;;;;;;;11.85;2.88;;;8.20;99.90;;;;;;4955711;28;20509;-75
2023/01/08 11:13:22;;;;;;;10.10;2.95;;;8.20;99.90;;;;;;4958604;28;20047;-74
2023/01/08 11:16:03;;;;;;;11.20;2.63;;;8.20;99.90;;;;;;4959782;28;20090;-74
2023/01/08 11:18:30;;;;;;;15.85;2.72;;;8.20;99.90;;;;;;4959353;28;20089;-73
2023/01/08 11:21:20;;;;;;;9.60;2.60;;;8.20;99.90;;;;;;4959242;28;20097;-74
2023/01/08 11:23:46;;;;;;;12.77;2.38;;;8.20;99.90;;;;;;4950669;28;20046;-75
2023/01/08 11:26:21;;;;;;;12.65;2.60;;;8.30;99.90;;;;;;4959171;28;20047;-74
2023/01/08 11:29:09;;;;;;;11.88;3.05;;;8.30;99.90;;;;;;4955893;28;20137;-74
2023/01/08 11:32:20;;;;;;;12.75;2.15;;;8.30;99.90;;;;;;4963492;28;20414;-72
2023/01/08 11:35:12;;;;;;;10.23;2.85;;;8.40;99.90;;;;;;4960003;28;20147;-74
2023/01/08 11:37:57;;;;;;;11.30;2.45;;;8.40;99.90;;;;;;4952922;28;20077;-73
2023/01/08 11:40:34;;;;;;;12.88;3.95;;;8.40;99.90;;;;;;4964615;28;20477;-73
2023/01/08 11:43:37;;;;;;;10.00;2.55;;;8.50;99.90;;;;;;4964328;28;20054;-69
2023/01/08 11:46:08;;;;;;;16.73;3.50;;;8.50;99.90;;;;;;4963703;28;20502;-70
2023/01/08 11:49:11;;;;;;;14.73;2.88;;;8.50;99.90;;;;;;4963642;28;20457;-70
2023/01/08 11:51:49;;;;;;;13.93;2.65;;;8.50;99.90;;;;;;4962240;28;20121;-70
2023/01/08 11:54:38;;;;;;;12.30;2.95;;;8.50;99.90;;;;;;4958688;28;20042;-71
2023/01/08 11:57:16;;;;;;;11.18;3.47;;;8.50;99.90;;;;;;4965290;28;20105;-70
2023/01/08 12:00:12;;;;;;;13.25;2.30;;;8.60;99.90;;;;;;4967724;28;20109;-71
2023/01/08 12:02:52;;;;;;;15.73;3.40;;;8.60;99.90;;;;;;4963849;28;20110;-70
2023/01/08 12:05:56;;;;;;;14.45;3.28;;;8.60;99.90;;;;;;4963806;28;20059;-71
2023/01/08 12:08:28;;;;;;;16.10;2.55;;;8.60;99.90;;;;;;4950634;28;20053;-70
2023/01/08 12:11:00;;;;;;;14.80;2.42;;;8.60;99.90;;;;;;4955654;28;20054;-72
2023/01/08 12:13:48;;;;;;;16.35;2.47;;;8.70;99.90;;;;;;4963751;28;20189;-71
2023/01/08 12:16:32;;;;;;;13.38;3.45;;;8.60;99.90;;;;;;4966867;28;20050;-71
2023/01/08 12:19:21;;;;;;;12.48;2.63;;;8.60;99.90;;;;;;4962283;28;20054;-68
2023/01/08 12:22:10;;;;;;;13.23;2.38;;;8.60;99.90;;;;;;4960755;28;20055;-71
2023/01/08 12:24:53;;;;;;;10.82;2.75;;;8.70;99.90;;;;;;4962559;28;20047;-70
2023/01/08 12:27:28;;;;;;;;;;;8.60;99.90;;;;;;4965742;28;20046;-69
2023/01/08 12:30:16;;;;;;;21.40;5.03;;;8.60;99.90;;;;;;4961943;28;20360;-73
2023/01/08 12:32:56;;;;;;;12.32;2.97;;;8.60;99.90;;;;;;4965023;28;20401;-74
2023/01/08 12:35:26;;;;;;;14.65;3.05;;;8.70;99.90;;;;;;4945533;28;20063;-72
2023/01/08 12:38:04;;;;;;;9.10;2.55;;;8.60;99.90;;;;;;4939831;28;20043;-73
2023/01/08 12:40:47;;;;;;;9.52;2.45;;;8.60;99.90;;;;;;4943834;28;20394;-73
2023/01/08 12:43:18;;;;;;;11.32;3.72;;;8.70;99.90;;;;;;4944257;28;20110;-73
2023/01/08 12:45:51;;;;;;;16.55;4.30;;;8.70;99.90;;;;;;4960499;28;20066;-72
2023/01/08 12:48:29;;;;;;;12.50;4.07;;;8.80;99.90;;;;;;4961024;28;20527;-73
2023/01/08 12:51:09;;;;;;;19.75;3.38;;;8.80;99.90;;;;;;4964594;28;20058;-72
2023/01/08 12:53:59;;;;;;;14.10;3.13;;;8.90;99.90;;;;;;4962472;28;20038;-73
2023/01/08 12:56:53;;;;;;;11.23;2.83;;;8.90;99.90;;;;;;4958886;28;20055;-73
2023/01/08 12:59:44;;;;;;;9.15;2.30;;;8.90;99.90;;;;;;4962873;28;20098;-73
2023/01/08 13:02:20;;;;;;;12.15;3.35;;;8.90;99.90;;;;;;4961373;28;20663;-73
2023/01/08 13:04:47;;;;;;;11.98;3.03;;;8.90;99.90;;;;;;4961375;28;20043;-73
2023/01/08 13:07:18;;;;;;;16.65;4.78;;;8.90;99.90;;;;;;4958686;28;20174;-73
2023/01/08 13:09:59;;;;;;;12.35;2.95;;;9.00;99.90;;;;;;4965480;28;20055;-72